sensor_id;sensor_type;location;lat;lon;timestamp;P1;durP1;ratioP1;P2;durP2;ratioP2
25187;SDS011;13141;50.414;8.050;2023-09-07T00:00:26;0.20;;;0.20;;
25187;SDS011;13141;50.414;8.050;2023-09-07T00:02:52;0.20;;;0.20;;
25187;SDS011;13141;50.414;8.050;2023-09-07T00:05:19;0.10;;;0.10;;
25187;SDS011;13141;50.414;8.050;2023-09-07T00:07:45;0.20;;;0.20;;
25187;SDS011;13141;50.414;8.050;2023-09-07T00:10:10;0.13;;;0.13;;
25187;SDS011;13141;50.414;8.050;2023-09-07T00:12:36;0.15;;;0.15;;
25187;SDS011;13141;50.414;8.050;2023-09-07T00:15:02;0.20;;;0.20;;
25187;SDS011;13141;50.414;8.050;2023-09-07T00:17:28;0.10;;;0.10;;
25187;SDS011;13141;50.414;8.050;2023-09-07T00:19:54;0.15;;;0.15;;
25187;SDS011;13141;50.414;8.050;2023-09-07T00:22:21;0.10;;;0.10;;
25187;SDS011;13141;50.414;8.050;2023-09-07T00:24:46;0.10;;;0.10;;
25187;SDS011;13141;50.414;8.050;2023-09-07T00:27:12;0.20;;;0.20;;
25187;SDS011;13141;50.414;8.050;2023-09-07T00:29:38;0.20;;;0.20;;
25187;SDS011;13141;50.414;8.050;2023-09-07T00:32:04;0.15;;;0.15;;
25187;SDS011;13141;50.414;8.050;2023-09-07T00:34:30;0.10;;;0.10;;
25187;SDS011;13141;50.414;8.050;2023-09-07T00:36:56;0.20;;;0.20;;
25187;SDS011;13141;50.414;8.050;2023-09-07T00:39:23;0.20;;;0.20;;
25187;SDS011;13141;50.414;8.050;2023-09-07T00:41:50;0.20;;;0.20;;
25187;SDS011;13141;50.414;8.050;2023-09-07T00:44:16;0.20;;;0.20;;
25187;SDS011;13141;50.414;8.050;2023-09-07T00:46:42;0.20;;;0.20;;
25187;SDS011;13141;50.414;8.050;2023-09-07T00:49:08;0.10;;;0.10;;
25187;SDS011;13141;50.414;8.050;2023-09-07T00:51:33;0.10;;;0.10;;
25187;SDS011;13141;50.414;8.050;2023-09-07T00:53:59;0.10;;;0.10;;
25187;SDS011;13141;50.414;8.050;2023-09-07T00:56:26;0.10;;;0.10;;
25187;SDS011;13141;50.414;8.050;2023-09-07T00:58:52;0.10;;;0.10;;
25187;SDS011;13141;50.414;8.050;2023-09-07T01:01:19;0.10;;;0.10;;
25187;SDS011;13141;50.414;8.050;2023-09-07T01:03:45;0.10;;;0.10;;
25187;SDS011;13141;50.414;8.050;2023-09-07T01:06:12;0.10;;;0.10;;
25187;SDS011;13141;50.414;8.050;2023-09-07T01:08:42;0.20;;;0.20;;
25187;SDS011;13141;50.414;8.050;2023-09-07T01:11:17;0.20;;;0.20;;
25187;SDS011;13141;50.414;8.050;2023-09-07T01:13:45;0.20;;;0.20;;
25187;SDS011;13141;50.414;8.050;2023-09-07T01:16:11;0.10;;;0.10;;
25187;SDS011;13141;50.414;8.050;2023-09-07T01:18:37;0.20;;;0.20;;
25187;SDS011;13141;50.414;8.050;2023-09-07T01:21:05;0.20;;;0.20;;
25187;SDS011;13141;50.414;8.050;2023-09-07T01:23:33;0.20;;;0.20;;
25187;SDS011;13141;50.414;8.050;2023-09-07T01:26:00;0.20;;;0.20;;
25187;SDS011;13141;50.414;8.050;2023-09-07T01:28:27;0.10;;;0.10;;
25187;SDS011;13141;50.414;8.050;2023-09-07T01:30:53;0.10;;;0.10;;
25187;SDS011;13141;50.414;8.050;2023-09-07T01:33:18;0.15;;;0.15;;
25187;SDS011;13141;50.414;8.050;2023-09-07T01:35:44;0.10;;;0.10;;
25187;SDS011;13141;50.414;8.050;2023-09-07T01:38:11;0.10;;;0.10;;
25187;SDS011;13141;50.414;8.050;2023-09-07T01:40:38;0.20;;;0.20;;
25187;SDS011;13141;50.414;8.050;2023-09-07T01:43:04;0.20;;;0.20;;
25187;SDS011;13141;50.414;8.050;2023-09-07T01:45:30;0.10;;;0.10;;
25187;SDS011;13141;50.414;8.050;2023-09-07T01:47:55;0.20;;;0.20;;
25187;SDS011;13141;50.414;8.050;2023-09-07T01:50:23;0.15;;;0.15;;
25187;SDS011;13141;50.414;8.050;2023-09-07T01:52:48;0.10;;;0.10;;
25187;SDS011;13141;50.414;8.050;2023-09-07T01:55:14;0.10;;;0.10;;
25187;SDS011;13141;50.414;8.050;2023-09-07T01:57:43;0.17;;;0.17;;
25187;SDS011;13141;50.414;8.050;2023-09-07T02:00:09;0.10;;;0.10;;
25187;SDS011;13141;50.414;8.050;2023-09-07T02:02:35;0.10;;;0.10;;
25187;SDS011;13141;50.414;8.050;2023-09-07T02:05:01;0.20;;;0.20;;
25187;SDS011;13141;50.414;8.050;2023-09-07T02:07:27;0.20;;;0.20;;
25187;SDS011;13141;50.414;8.050;2023-09-07T02:09:52;0.20;;;0.20;;
25187;SDS011;13141;50.414;8.050;2023-09-07T02:12:18;0.10;;;0.10;;
25187;SDS011;13141;50.414;8.050;2023-09-07T02:14:46;0.13;;;0.13;;
25187;SDS011;13141;50.414;8.050;2023-09-07T02:17:12;0.20;;;0.20;;
25187;SDS011;13141;50.414;8.050;2023-09-07T02:19:38;0.20;;;0.20;;
25187;SDS011;13141;50.414;8.050;2023-09-07T02:22:03;0.20;;;0.20;;
25187;SDS011;13141;50.414;8.050;2023-09-07T02:24:29;0.10;;;0.10;;
25187;SDS011;13141;50.414;8.050;2023-09-07T02:26:55;0.10;;;0.10;;
25187;SDS011;13141;50.414;8.050;2023-09-07T02:29:21;0.13;;;0.13;;
25187;SDS011;13141;50.414;8.050;2023-09-07T02:31:48;0.20;;;0.20;;
25187;SDS011;13141;50.414;8.050;2023-09-07T02:34:14;0.13;;;0.13;;
25187;SDS011;13141;50.414;8.050;2023-09-07T02:36:40;0.20;;;0.20;;
25187;SDS011;13141;50.414;8.050;2023-09-07T02:39:07;0.10;;;0.10;;
25187;SDS011;13141;50.414;8.050;2023-09-07T02:41:32;0.10;;;0.10;;
25187;SDS011;13141;50.414;8.050;2023-09-07T02:43:58;0.10;;;0.10;;
25187;SDS011;13141;50.414;8.050;2023-09-07T02:46:24;0.10;;;0.10;;
25187;SDS011;13141;50.414;8.050;2023-09-07T02:48:51;0.10;;;0.10;;
25187;SDS011;13141;50.414;8.050;2023-09-07T02:51:17;0.10;;;0.10;;
25187;SDS011;13141;50.414;8.050;2023-09-07T02:53:43;0.10;;;0.10;;
25187;SDS011;13141;50.414;8.050;2023-09-07T02:56:09;0.20;;;0.20;;
25187;SDS011;13141;50.414;8.050;2023-09-07T02:58:35;0.20;;;0.20;;
25187;SDS011;13141;50.414;8.050;2023-09-07T03:01:00;0.10;;;0.10;;
25187;SDS011;13141;50.414;8.050;2023-09-07T03:03:31;0.20;;;0.20;;
25187;SDS011;13141;50.414;8.050;2023-09-07T03:05:59;0.20;;;0.20;;
25187;SDS011;13141;50.414;8.050;2023-09-07T03:08:33;0.20;;;0.20;;
25187;SDS011;13141;50.414;8.050;2023-09-07T03:11:02;0.20;;;0.20;;
25187;SDS011;13141;50.414;8.050;2023-09-07T03:13:28;0.20;;;0.20;;
25187;SDS011;13141;50.414;8.050;2023-09-07T03:15:54;0.10;;;0.10;;
25187;SDS011;13141;50.414;8.050;2023-09-07T03:18:19;0.30;;;0.30;;
25187;SDS011;13141;50.414;8.050;2023-09-07T03:20:45;0.13;;;0.13;;
25187;SDS011;13141;50.414;8.050;2023-09-07T03:23:12;0.20;;;0.20;;
25187;SDS011;13141;50.414;8.050;2023-09-07T03:25:38;0.10;;;0.10;;
25187;SDS011;13141;50.414;8.050;2023-09-07T03:28:04;0.10;;;0.10;;
25187;SDS011;13141;50.414;8.050;2023-09-07T03:30:30;0.13;;;0.13;;
25187;SDS011;13141;50.414;8.050;2023-09-07T03:32:55;0.20;;;0.20;;
25187;SDS011;13141;50.414;8.050;2023-09-07T03:35:21;0.10;;;0.10;;
25187;SDS011;13141;50.414;8.050;2023-09-07T03:37:47;0.15;;;0.15;;
25187;SDS011;13141;50.414;8.050;2023-09-07T03:40:15;0.13;;;0.13;;
25187;SDS011;13141;50.414;8.050;2023-09-07T03:42:41;0.10;;;0.10;;
25187;SDS011;13141;50.414;8.050;2023-09-07T03:45:10;0.10;;;0.10;;
25187;SDS011;13141;50.414;8.050;2023-09-07T03:47:36;0.13;;;0.13;;
25187;SDS011;13141;50.414;8.050;2023-09-07T03:50:03;0.10;;;0.10;;
25187;SDS011;13141;50.414;8.050;2023-09-07T03:52:29;0.10;;;0.10;;
25187;SDS011;13141;50.414;8.050;2023-09-07T03:54:55;0.10;;;0.10;;
25187;SDS011;13141;50.414;8.050;2023-09-07T03:57:25;0.20;;;0.20;;
25187;SDS011;13141;50.414;8.050;2023-09-07T03:59:51;0.20;;;0.20;;
25187;SDS011;13141;50.414;8.050;2023-09-07T04:02:17;0.10;;;0.10;;
25187;SDS011;13141;50.414;8.050;2023-09-07T04:04:47;0.13;;;0.13;;
25187;SDS011;13141;50.414;8.050;2023-09-07T04:07:14;0.10;;;0.10;;
25187;SDS011;13141;50.414;8.050;2023-09-07T04:09:40;0.10;;;0.10;;
25187;SDS011;13141;50.414;8.050;2023-09-07T04:12:06;0.10;;;0.10;;
25187;SDS011;13141;50.414;8.050;2023-09-07T04:17:17;0.20;;;0.20;;
25187;SDS011;13141;50.414;8.050;2023-09-07T04:19:43;0.20;;;0.20;;
25187;SDS011;13141;50.414;8.050;2023-09-07T04:22:09;0.10;;;0.10;;
25187;SDS011;13141;50.414;8.050;2023-09-07T04:24:35;0.13;;;0.13;;
25187;SDS011;13141;50.414;8.050;2023-09-07T04:27:01;0.10;;;0.10;;
25187;SDS011;13141;50.414;8.050;2023-09-07T04:29:27;0.10;;;0.10;;
25187;SDS011;13141;50.414;8.050;2023-09-07T04:31:54;0.10;;;0.10;;
25187;SDS011;13141;50.414;8.050;2023-09-07T04:34:20;0.13;;;0.13;;
25187;SDS011;13141;50.414;8.050;2023-09-07T04:36:46;0.10;;;0.10;;
25187;SDS011;13141;50.414;8.050;2023-09-07T04:39:12;0.10;;;0.10;;
25187;SDS011;13141;50.414;8.050;2023-09-07T04:41:37;0.20;;;0.20;;
25187;SDS011;13141;50.414;8.050;2023-09-07T04:44:03;0.20;;;0.20;;
25187;SDS011;13141;50.414;8.050;2023-09-07T04:46:29;0.20;;;0.20;;
25187;SDS011;13141;50.414;8.050;2023-09-07T04:48:56;0.20;;;0.20;;
25187;SDS011;13141;50.414;8.050;2023-09-07T04:51:22;0.20;;;0.20;;
25187;SDS011;13141;50.414;8.050;2023-09-07T04:53:48;0.15;;;0.15;;
25187;SDS011;13141;50.414;8.050;2023-09-07T04:56:14;0.10;;;0.10;;
25187;SDS011;13141;50.414;8.050;2023-09-07T04:58:39;0.20;;;0.20;;
25187;SDS011;13141;50.414;8.050;2023-09-07T05:01:05;0.17;;;0.17;;
25187;SDS011;13141;50.414;8.050;2023-09-07T05:03:32;0.20;;;0.20;;
25187;SDS011;13141;50.414;8.050;2023-09-07T05:05:59;0.20;;;0.20;;
25187;SDS011;13141;50.414;8.050;2023-09-07T05:08:25;0.17;;;0.17;;
25187;SDS011;13141;50.414;8.050;2023-09-07T05:10:54;0.10;;;0.10;;
25187;SDS011;13141;50.414;8.050;2023-09-07T05:13:20;0.20;;;0.20;;
25187;SDS011;13141;50.414;8.050;2023-09-07T05:15:47;0.20;;;0.20;;
25187;SDS011;13141;50.414;8.050;2023-09-07T05:18:13;0.10;;;0.10;;
25187;SDS011;13141;50.414;8.050;2023-09-07T05:20:38;0.10;;;0.10;;
25187;SDS011;13141;50.414;8.050;2023-09-07T05:23:05;0.17;;;0.17;;
25187;SDS011;13141;50.414;8.050;2023-09-07T05:25:31;0.10;;;0.10;;
25187;SDS011;13141;50.414;8.050;2023-09-07T05:27:57;0.20;;;0.20;;
25187;SDS011;13141;50.414;8.050;2023-09-07T05:30:23;0.20;;;0.20;;
25187;SDS011;13141;50.414;8.050;2023-09-07T05:32:48;0.20;;;0.20;;
25187;SDS011;13141;50.414;8.050;2023-09-07T05:35:14;0.15;;;0.15;;
25187;SDS011;13141;50.414;8.050;2023-09-07T05:37:39;0.20;;;0.20;;
25187;SDS011;13141;50.414;8.050;2023-09-07T05:40:07;0.20;;;0.20;;
25187;SDS011;13141;50.414;8.050;2023-09-07T05:42:33;0.20;;;0.20;;
25187;SDS011;13141;50.414;8.050;2023-09-07T05:45:02;0.20;;;0.20;;
25187;SDS011;13141;50.414;8.050;2023-09-07T05:47:28;0.20;;;0.20;;
25187;SDS011;13141;50.414;8.050;2023-09-07T05:49:54;0.20;;;0.20;;
25187;SDS011;13141;50.414;8.050;2023-09-07T05:52:20;0.10;;;0.10;;
25187;SDS011;13141;50.414;8.050;2023-09-07T05:54:45;0.15;;;0.15;;
25187;SDS011;13141;50.414;8.050;2023-09-07T05:57:12;0.10;;;0.10;;
25187;SDS011;13141;50.414;8.050;2023-09-07T05:59:38;0.10;;;0.10;;
25187;SDS011;13141;50.414;8.050;2023-09-07T06:02:03;0.10;;;0.10;;
25187;SDS011;13141;50.414;8.050;2023-09-07T06:04:30;0.10;;;0.10;;
25187;SDS011;13141;50.414;8.050;2023-09-07T06:06:55;0.17;;;0.17;;
25187;SDS011;13141;50.414;8.050;2023-09-07T06:09:21;0.20;;;0.20;;
25187;SDS011;13141;50.414;8.050;2023-09-07T06:11:47;0.10;;;0.10;;
25187;SDS011;13141;50.414;8.050;2023-09-07T06:14:14;0.15;;;0.15;;
25187;SDS011;13141;50.414;8.050;2023-09-07T06:16:40;0.20;;;0.20;;
25187;SDS011;13141;50.414;8.050;2023-09-07T06:19:05;0.20;;;0.20;;
25187;SDS011;13141;50.414;8.050;2023-09-07T06:21:31;0.10;;;0.10;;
25187;SDS011;13141;50.414;8.050;2023-09-07T06:23:57;0.20;;;0.20;;
25187;SDS011;13141;50.414;8.050;2023-09-07T06:26:22;0.20;;;0.20;;
25187;SDS011;13141;50.414;8.050;2023-09-07T06:28:48;0.10;;;0.10;;
25187;SDS011;13141;50.414;8.050;2023-09-07T06:31:15;0.10;;;0.10;;
25187;SDS011;13141;50.414;8.050;2023-09-07T06:33:41;0.20;;;0.20;;
25187;SDS011;13141;50.414;8.050;2023-09-07T06:36:07;0.20;;;0.20;;
25187;SDS011;13141;50.414;8.050;2023-09-07T06:38:33;0.10;;;0.10;;
25187;SDS011;13141;50.414;8.050;2023-09-07T06:40:58;0.20;;;0.20;;
25187;SDS011;13141;50.414;8.050;2023-09-07T06:43:24;0.20;;;0.20;;
25187;SDS011;13141;50.414;8.050;2023-09-07T06:45:50;0.10;;;0.10;;
25187;SDS011;13141;50.414;8.050;2023-09-07T06:48:17;0.20;;;0.20;;
25187;SDS011;13141;50.414;8.050;2023-09-07T06:50:42;0.20;;;0.20;;
25187;SDS011;13141;50.414;8.050;2023-09-07T06:53:08;0.10;;;0.10;;
25187;SDS011;13141;50.414;8.050;2023-09-07T06:55:34;0.20;;;0.20;;
25187;SDS011;13141;50.414;8.050;2023-09-07T06:57:59;0.20;;;0.20;;
25187;SDS011;13141;50.414;8.050;2023-09-07T07:00:25;0.10;;;0.10;;
25187;SDS011;13141;50.414;8.050;2023-09-07T07:02:51;0.10;;;0.10;;
25187;SDS011;13141;50.414;8.050;2023-09-07T07:05:18;0.10;;;0.10;;
25187;SDS011;13141;50.414;8.050;2023-09-07T07:07:43;0.20;;;0.20;;
25187;SDS011;13141;50.414;8.050;2023-09-07T07:10:09;0.20;;;0.20;;
25187;SDS011;13141;50.414;8.050;2023-09-07T07:12:35;0.13;;;0.13;;
25187;SDS011;13141;50.414;8.050;2023-09-07T07:15:00;0.20;;;0.20;;
25187;SDS011;13141;50.414;8.050;2023-09-07T07:17:26;0.10;;;0.10;;
25187;SDS011;13141;50.414;8.050;2023-09-07T07:19:52;0.10;;;0.10;;
25187;SDS011;13141;50.414;8.050;2023-09-07T07:22:19;0.20;;;0.20;;
25187;SDS011;13141;50.414;8.050;2023-09-07T07:24:45;0.20;;;0.20;;
25187;SDS011;13141;50.414;8.050;2023-09-07T07:27:11;0.10;;;0.10;;
25187;SDS011;13141;50.414;8.050;2023-09-07T07:29:37;0.10;;;0.10;;
25187;SDS011;13141;50.414;8.050;2023-09-07T07:32:03;0.10;;;0.10;;
25187;SDS011;13141;50.414;8.050;2023-09-07T07:34:29;0.10;;;0.10;;
25187;SDS011;13141;50.414;8.050;2023-09-07T07:36:55;0.20;;;0.20;;
25187;SDS011;13141;50.414;8.050;2023-09-07T07:39:22;0.20;;;0.20;;
25187;SDS011;13141;50.414;8.050;2023-09-07T07:41:47;0.20;;;0.20;;
25187;SDS011;13141;50.414;8.050;2023-09-07T07:44:13;0.20;;;0.20;;
25187;SDS011;13141;50.414;8.050;2023-09-07T07:46:39;0.10;;;0.10;;
25187;SDS011;13141;50.414;8.050;2023-09-07T07:49:05;0.10;;;0.10;;
25187;SDS011;13141;50.414;8.050;2023-09-07T07:51:30;0.20;;;0.20;;
25187;SDS011;13141;50.414;8.050;2023-09-07T07:53:56;0.10;;;0.10;;
25187;SDS011;13141;50.414;8.050;2023-09-07T07:56:23;0.10;;;0.10;;
25187;SDS011;13141;50.414;8.050;2023-09-07T07:58:49;0.17;;;0.17;;
25187;SDS011;13141;50.414;8.050;2023-09-07T08:01:15;0.10;;;0.10;;
25187;SDS011;13141;50.414;8.050;2023-09-07T08:03:41;0.20;;;0.20;;
25187;SDS011;13141;50.414;8.050;2023-09-07T08:06:07;0.20;;;0.20;;
25187;SDS011;13141;50.414;8.050;2023-09-07T08:08:33;0.17;;;0.17;;
25187;SDS011;13141;50.414;8.050;2023-09-07T08:10:58;0.17;;;0.17;;
25187;SDS011;13141;50.414;8.050;2023-09-07T08:13:25;0.10;;;0.10;;
25187;SDS011;13141;50.414;8.050;2023-09-07T08:15:51;0.20;;;0.20;;
25187;SDS011;13141;50.414;8.050;2023-09-07T08:18:17;0.20;;;0.20;;
25187;SDS011;13141;50.414;8.050;2023-09-07T08:20:42;0.10;;;0.10;;
25187;SDS011;13141;50.414;8.050;2023-09-07T08:23:08;0.10;;;0.10;;
25187;SDS011;13141;50.414;8.050;2023-09-07T08:25:34;0.10;;;0.10;;
25187;SDS011;13141;50.414;8.050;2023-09-07T08:28:00;0.20;;;0.20;;
25187;SDS011;13141;50.414;8.050;2023-09-07T08:30:27;0.10;;;0.10;;
25187;SDS011;13141;50.414;8.050;2023-09-07T08:32:53;0.20;;;0.20;;
25187;SDS011;13141;50.414;8.050;2023-09-07T08:35:18;0.10;;;0.10;;
25187;SDS011;13141;50.414;8.050;2023-09-07T08:37:44;0.15;;;0.15;;
25187;SDS011;13141;50.414;8.050;2023-09-07T08:40:10;0.20;;;0.20;;
25187;SDS011;13141;50.414;8.050;2023-09-07T08:42:36;0.10;;;0.10;;
25187;SDS011;13141;50.414;8.050;2023-09-07T08:45:02;0.20;;;0.20;;
25187;SDS011;13141;50.414;8.050;2023-09-07T08:47:30;0.20;;;0.20;;
25187;SDS011;13141;50.414;8.050;2023-09-07T08:49:56;0.20;;;0.20;;
25187;SDS011;13141;50.414;8.050;2023-09-07T08:52:23;0.10;;;0.10;;
25187;SDS011;13141;50.414;8.050;2023-09-07T08:54:49;0.10;;;0.10;;
25187;SDS011;13141;50.414;8.050;2023-09-07T08:57:15;0.20;;;0.20;;
25187;SDS011;13141;50.414;8.050;2023-09-07T08:59:41;0.20;;;0.20;;
25187;SDS011;13141;50.414;8.050;2023-09-07T09:02:08;0.20;;;0.20;;
25187;SDS011;13141;50.414;8.050;2023-09-07T09:04:36;0.10;;;0.10;;
25187;SDS011;13141;50.414;8.050;2023-09-07T09:07:02;0.20;;;0.20;;
25187;SDS011;13141;50.414;8.050;2023-09-07T09:09:28;0.20;;;0.20;;
25187;SDS011;13141;50.414;8.050;2023-09-07T09:11:54;0.20;;;0.20;;
25187;SDS011;13141;50.414;8.050;2023-09-07T09:14:20;0.20;;;0.20;;
25187;SDS011;13141;50.414;8.050;2023-09-07T09:16:49;0.20;;;0.20;;
25187;SDS011;13141;50.414;8.050;2023-09-07T09:19:15;0.17;;;0.17;;
25187;SDS011;13141;50.414;8.050;2023-09-07T09:21:43;0.20;;;0.20;;
25187;SDS011;13141;50.414;8.050;2023-09-07T09:24:10;0.20;;;0.20;;
25187;SDS011;13141;50.414;8.050;2023-09-07T09:26:36;0.20;;;0.20;;
25187;SDS011;13141;50.414;8.050;2023-09-07T09:29:02;0.20;;;0.20;;
25187;SDS011;13141;50.414;8.050;2023-09-07T09:31:28;0.20;;;0.20;;
25187;SDS011;13141;50.414;8.050;2023-09-07T09:33:55;0.30;;;0.30;;
25187;SDS011;13141;50.414;8.050;2023-09-07T09:36:21;0.17;;;0.17;;
25187;SDS011;13141;50.414;8.050;2023-09-07T09:38:49;0.20;;;0.20;;
25187;SDS011;13141;50.414;8.050;2023-09-07T09:41:15;0.20;;;0.20;;
25187;SDS011;13141;50.414;8.050;2023-09-07T09:43:42;0.30;;;0.30;;
25187;SDS011;13141;50.414;8.050;2023-09-07T09:46:08;0.20;;;0.20;;
25187;SDS011;13141;50.414;8.050;2023-09-07T09:48:35;0.20;;;0.20;;
25187;SDS011;13141;50.414;8.050;2023-09-07T09:51:02;0.20;;;0.20;;
25187;SDS011;13141;50.414;8.050;2023-09-07T09:53:28;0.20;;;0.20;;
25187;SDS011;13141;50.414;8.050;2023-09-07T09:55:56;0.20;;;0.20;;
25187;SDS011;13141;50.414;8.050;2023-09-07T09:58:22;0.20;;;0.20;;
25187;SDS011;13141;50.414;8.050;2023-09-07T10:00:49;0.20;;;0.20;;
25187;SDS011;13141;50.414;8.050;2023-09-07T10:03:18;0.30;;;0.30;;
25187;SDS011;13141;50.414;8.050;2023-09-07T10:05:48;0.28;;;0.28;;
25187;SDS011;13141;50.414;8.050;2023-09-07T10:08:15;0.20;;;0.20;;
25187;SDS011;13141;50.414;8.050;2023-09-07T10:10:42;0.20;;;0.20;;
25187;SDS011;13141;50.414;8.050;2023-09-07T10:13:16;0.20;;;0.20;;
25187;SDS011;13141;50.414;8.050;2023-09-07T10:15:59;0.20;;;0.20;;
25187;SDS011;13141;50.414;8.050;2023-09-07T10:18:32;0.30;;;0.30;;
25187;SDS011;13141;50.414;8.050;2023-09-07T10:20:58;0.30;;;0.30;;
25187;SDS011;13141;50.414;8.050;2023-09-07T10:23:34;0.25;;;0.25;;
25187;SDS011;13141;50.414;8.050;2023-09-07T10:26:02;0.30;;;0.30;;
25187;SDS011;13141;50.414;8.050;2023-09-07T10:28:30;0.20;;;0.20;;
25187;SDS011;13141;50.414;8.050;2023-09-07T10:31:01;0.30;;;0.30;;
25187;SDS011;13141;50.414;8.050;2023-09-07T10:33:28;0.28;;;0.28;;
25187;SDS011;13141;50.414;8.050;2023-09-07T10:35:54;0.37;;;0.37;;
25187;SDS011;13141;50.414;8.050;2023-09-07T10:38:20;0.35;;;0.35;;
25187;SDS011;13141;50.414;8.050;2023-09-07T10:40:47;0.28;;;0.28;;
25187;SDS011;13141;50.414;8.050;2023-09-07T10:43:13;0.40;;;0.40;;
25187;SDS011;13141;50.414;8.050;2023-09-07T10:45:43;0.20;;;0.20;;
25187;SDS011;13141;50.414;8.050;2023-09-07T10:48:10;0.30;;;0.30;;
25187;SDS011;13141;50.414;8.050;2023-09-07T10:50:42;0.20;;;0.20;;
25187;SDS011;13141;50.414;8.050;2023-09-07T10:53:08;0.28;;;0.28;;
25187;SDS011;13141;50.414;8.050;2023-09-07T10:55:36;0.25;;;0.25;;
25187;SDS011;13141;50.414;8.050;2023-09-07T10:58:05;0.30;;;0.30;;
25187;SDS011;13141;50.414;8.050;2023-09-07T11:00:31;0.20;;;0.20;;
25187;SDS011;13141;50.414;8.050;2023-09-07T11:02:58;0.30;;;0.30;;
25187;SDS011;13141;50.414;8.050;2023-09-07T11:05:25;0.30;;;0.30;;
25187;SDS011;13141;50.414;8.050;2023-09-07T11:07:51;0.40;;;0.40;;
25187;SDS011;13141;50.414;8.050;2023-09-07T11:10:17;0.30;;;0.30;;
25187;SDS011;13141;50.414;8.050;2023-09-07T11:12:44;0.32;;;0.32;;
25187;SDS011;13141;50.414;8.050;2023-09-07T11:15:12;0.25;;;0.25;;
25187;SDS011;13141;50.414;8.050;2023-09-07T11:17:38;0.20;;;0.20;;
25187;SDS011;13141;50.414;8.050;2023-09-07T11:20:06;0.30;;;0.30;;
25187;SDS011;13141;50.414;8.050;2023-09-07T11:22:32;0.30;;;0.30;;
25187;SDS011;13141;50.414;8.050;2023-09-07T11:24:59;0.30;;;0.30;;
25187;SDS011;13141;50.414;8.050;2023-09-07T11:27:24;0.40;;;0.40;;
25187;SDS011;13141;50.414;8.050;2023-09-07T11:29:53;0.40;;;0.40;;
25187;SDS011;13141;50.414;8.050;2023-09-07T11:32:21;0.20;;;0.20;;
25187;SDS011;13141;50.414;8.050;2023-09-07T11:34:47;0.28;;;0.28;;
25187;SDS011;13141;50.414;8.050;2023-09-07T11:37:14;0.20;;;0.20;;
25187;SDS011;13141;50.414;8.050;2023-09-07T11:39:40;0.30;;;0.30;;
25187;SDS011;13141;50.414;8.050;2023-09-07T11:42:05;0.32;;;0.32;;
25187;SDS011;13141;50.414;8.050;2023-09-07T11:44:31;0.30;;;0.30;;
25187;SDS011;13141;50.414;8.050;2023-09-07T11:46:57;0.30;;;0.30;;
25187;SDS011;13141;50.414;8.050;2023-09-07T11:49:23;0.35;;;0.35;;
25187;SDS011;13141;50.414;8.050;2023-09-07T11:51:48;0.30;;;0.30;;
25187;SDS011;13141;50.414;8.050;2023-09-07T11:54:15;0.30;;;0.30;;
25187;SDS011;13141;50.414;8.050;2023-09-07T11:56:41;0.30;;;0.30;;
25187;SDS011;13141;50.414;8.050;2023-09-07T11:59:07;0.28;;;0.28;;
25187;SDS011;13141;50.414;8.050;2023-09-07T12:01:33;0.45;;;0.45;;
25187;SDS011;13141;50.414;8.050;2023-09-07T12:03:59;0.40;;;0.40;;
25187;SDS011;13141;50.414;8.050;2023-09-07T12:06:25;0.37;;;0.37;;
25187;SDS011;13141;50.414;8.050;2023-09-07T12:09:00;0.30;;;0.30;;
25187;SDS011;13141;50.414;8.050;2023-09-07T12:11:28;0.30;;;0.30;;
25187;SDS011;13141;50.414;8.050;2023-09-07T12:13:54;0.30;;;0.30;;
25187;SDS011;13141;50.414;8.050;2023-09-07T12:16:19;0.37;;;0.37;;
25187;SDS011;13141;50.414;8.050;2023-09-07T12:18:45;0.32;;;0.32;;
25187;SDS011;13141;50.414;8.050;2023-09-07T12:21:11;0.40;;;0.40;;
25187;SDS011;13141;50.414;8.050;2023-09-07T12:23:36;0.40;;;0.40;;
25187;SDS011;13141;50.414;8.050;2023-09-07T12:26:02;0.40;;;0.40;;
25187;SDS011;13141;50.414;8.050;2023-09-07T12:28:31;0.32;;;0.32;;
25187;SDS011;13141;50.414;8.050;2023-09-07T12:30:57;0.28;;;0.28;;
25187;SDS011;13141;50.414;8.050;2023-09-07T12:33:23;0.40;;;0.40;;
25187;SDS011;13141;50.414;8.050;2023-09-07T12:35:49;0.40;;;0.40;;
25187;SDS011;13141;50.414;8.050;2023-09-07T12:38:15;0.43;;;0.43;;
25187;SDS011;13141;50.414;8.050;2023-09-07T12:40:40;0.40;;;0.40;;
25187;SDS011;13141;50.414;8.050;2023-09-07T12:43:06;0.30;;;0.30;;
25187;SDS011;13141;50.414;8.050;2023-09-07T12:45:33;0.40;;;0.40;;
25187;SDS011;13141;50.414;8.050;2023-09-07T12:48:02;0.40;;;0.40;;
25187;SDS011;13141;50.414;8.050;2023-09-07T12:50:28;0.47;;;0.47;;
25187;SDS011;13141;50.414;8.050;2023-09-07T12:52:54;0.40;;;0.40;;
25187;SDS011;13141;50.414;8.050;2023-09-07T12:55:20;0.40;;;0.40;;
25187;SDS011;13141;50.414;8.050;2023-09-07T12:57:45;0.40;;;0.40;;
25187;SDS011;13141;50.414;8.050;2023-09-07T13:00:12;0.50;;;0.50;;
25187;SDS011;13141;50.414;8.050;2023-09-07T13:02:39;0.40;;;0.40;;
25187;SDS011;13141;50.414;8.050;2023-09-07T13:05:05;0.40;;;0.40;;
25187;SDS011;13141;50.414;8.050;2023-09-07T13:07:31;0.50;;;0.50;;
25187;SDS011;13141;50.414;8.050;2023-09-07T13:09:57;0.32;;;0.32;;
25187;SDS011;13141;50.414;8.050;2023-09-07T13:12:22;0.43;;;0.43;;
25187;SDS011;13141;50.414;8.050;2023-09-07T13:14:48;0.32;;;0.32;;
25187;SDS011;13141;50.414;8.050;2023-09-07T13:17:14;0.40;;;0.40;;
25187;SDS011;13141;50.414;8.050;2023-09-07T13:19:41;0.40;;;0.40;;
25187;SDS011;13141;50.414;8.050;2023-09-07T13:22:08;0.40;;;0.40;;
25187;SDS011;13141;50.414;8.050;2023-09-07T13:24:34;0.47;;;0.47;;
25187;SDS011;13141;50.414;8.050;2023-09-07T13:27:00;0.40;;;0.40;;
25187;SDS011;13141;50.414;8.050;2023-09-07T13:29:26;0.47;;;0.47;;
25187;SDS011;13141;50.414;8.050;2023-09-07T13:31:54;0.30;;;0.30;;
25187;SDS011;13141;50.414;8.050;2023-09-07T13:34:20;0.50;;;0.50;;
25187;SDS011;13141;50.414;8.050;2023-09-07T13:36:48;0.30;;;0.30;;
25187;SDS011;13141;50.414;8.050;2023-09-07T13:39:13;0.30;;;0.30;;
25187;SDS011;13141;50.414;8.050;2023-09-07T13:41:39;0.30;;;0.30;;
25187;SDS011;13141;50.414;8.050;2023-09-07T13:44:05;0.32;;;0.32;;
25187;SDS011;13141;50.414;8.050;2023-09-07T13:46:31;0.40;;;0.40;;
25187;SDS011;13141;50.414;8.050;2023-09-07T13:48:57;0.43;;;0.43;;
25187;SDS011;13141;50.414;8.050;2023-09-07T13:51:23;0.50;;;0.50;;
25187;SDS011;13141;50.414;8.050;2023-09-07T13:53:50;0.43;;;0.43;;
25187;SDS011;13141;50.414;8.050;2023-09-07T13:56:15;0.40;;;0.40;;
25187;SDS011;13141;50.414;8.050;2023-09-07T13:58:41;0.50;;;0.50;;
25187;SDS011;13141;50.414;8.050;2023-09-07T14:01:07;0.50;;;0.50;;
25187;SDS011;13141;50.414;8.050;2023-09-07T14:03:32;0.50;;;0.50;;
25187;SDS011;13141;50.414;8.050;2023-09-07T14:05:58;0.40;;;0.40;;
25187;SDS011;13141;50.414;8.050;2023-09-07T14:08:25;0.50;;;0.50;;
25187;SDS011;13141;50.414;8.050;2023-09-07T14:10:52;0.52;;;0.52;;
25187;SDS011;13141;50.414;8.050;2023-09-07T14:13:18;0.68;;;0.68;;
25187;SDS011;13141;50.414;8.050;2023-09-07T14:15:43;0.45;;;0.45;;
25187;SDS011;13141;50.414;8.050;2023-09-07T14:18:09;0.43;;;0.43;;
25187;SDS011;13141;50.414;8.050;2023-09-07T14:20:35;0.40;;;0.40;;
25187;SDS011;13141;50.414;8.050;2023-09-07T14:23:01;0.50;;;0.50;;
25187;SDS011;13141;50.414;8.050;2023-09-07T14:25:31;0.50;;;0.50;;
25187;SDS011;13141;50.414;8.050;2023-09-07T14:27:58;0.50;;;0.50;;
25187;SDS011;13141;50.414;8.050;2023-09-07T14:30:24;0.47;;;0.47;;
25187;SDS011;13141;50.414;8.050;2023-09-07T14:32:50;0.40;;;0.40;;
25187;SDS011;13141;50.414;8.050;2023-09-07T14:35:16;0.40;;;0.40;;
25187;SDS011;13141;50.414;8.050;2023-09-07T14:37:45;0.50;;;0.50;;
25187;SDS011;13141;50.414;8.050;2023-09-07T14:40:11;0.50;;;0.50;;
25187;SDS011;13141;50.414;8.050;2023-09-07T14:42:37;0.40;;;0.40;;
25187;SDS011;13141;50.414;8.050;2023-09-07T14:45:05;0.40;;;0.40;;